sensor_id;sensor_type;location;lat;lon;timestamp;P1;durP1;ratioP1;P2;durP2;ratioP2
56291;SDS011;54008;53.606;9.462;2022-11-18T00:02:01;16.58;;;9.30;;
56291;SDS011;54008;53.606;9.462;2022-11-18T00:04:27;16.92;;;8.95;;
56291;SDS011;54008;53.606;9.462;2022-11-18T00:06:52;17.83;;;8.95;;
56291;SDS011;54008;53.606;9.462;2022-11-18T00:09:17;19.23;;;9.30;;
56291;SDS011;54008;53.606;9.462;2022-11-18T00:11:42;16.92;;;8.43;;
56291;SDS011;54008;53.606;9.462;2022-11-18T00:14:26;17.88;;;8.43;;
56291;SDS011;54008;53.606;9.462;2022-11-18T00:16:53;20.63;;;10.43;;
56291;SDS011;54008;53.606;9.462;2022-11-18T00:19:37;17.77;;;9.48;;
56291;SDS011;54008;53.606;9.462;2022-11-18T00:22:05;18.95;;;8.73;;
56291;SDS011;54008;53.606;9.462;2022-11-18T00:24:32;17.52;;;8.85;;
56291;SDS011;54008;53.606;9.462;2022-11-18T00:26:58;18.73;;;8.63;;
56291;SDS011;54008;53.606;9.462;2022-11-18T00:29:23;16.60;;;8.68;;
56291;SDS011;54008;53.606;9.462;2022-11-18T00:31:52;17.27;;;9.43;;
56291;SDS011;54008;53.606;9.462;2022-11-18T00:34:20;17.75;;;8.95;;
56291;SDS011;54008;53.606;9.462;2022-11-18T00:36:46;16.83;;;9.43;;
56291;SDS011;54008;53.606;9.462;2022-11-18T00:39:12;18.30;;;9.50;;
56291;SDS011;54008;53.606;9.462;2022-11-18T00:41:39;16.05;;;8.85;;
56291;SDS011;54008;53.606;9.462;2022-11-18T00:44:23;16.55;;;8.57;;
56291;SDS011;54008;53.606;9.462;2022-11-18T00:46:49;18.98;;;9.65;;
56291;SDS011;54008;53.606;9.462;2022-11-18T00:49:14;20.10;;;9.73;;
56291;SDS011;54008;53.606;9.462;2022-11-18T00:51:39;16.27;;;9.15;;
56291;SDS011;54008;53.606;9.462;2022-11-18T00:54:05;16.23;;;8.32;;
56291;SDS011;54008;53.606;9.462;2022-11-18T00:56:30;20.25;;;10.15;;
56291;SDS011;54008;53.606;9.462;2022-11-18T00:58:56;18.45;;;9.80;;
56291;SDS011;54008;53.606;9.462;2022-11-18T01:01:21;19.17;;;9.88;;
56291;SDS011;54008;53.606;9.462;2022-11-18T01:03:47;15.43;;;8.70;;
56291;SDS011;54008;53.606;9.462;2022-11-18T01:06:12;21.70;;;9.98;;
56291;SDS011;54008;53.606;9.462;2022-11-18T01:08:37;18.40;;;9.50;;
56291;SDS011;54008;53.606;9.462;2022-11-18T01:11:02;18.75;;;9.73;;
56291;SDS011;54008;53.606;9.462;2022-11-18T01:13:50;18.83;;;9.50;;
56291;SDS011;54008;53.606;9.462;2022-11-18T01:16:19;19.30;;;9.63;;
56291;SDS011;54008;53.606;9.462;2022-11-18T01:21:11;18.77;;;8.98;;
56291;SDS011;54008;53.606;9.462;2022-11-18T01:23:36;18.85;;;9.27;;
56291;SDS011;54008;53.606;9.462;2022-11-18T01:26:06;18.45;;;8.93;;
56291;SDS011;54008;53.606;9.462;2022-11-18T01:28:36;18.75;;;9.07;;
56291;SDS011;54008;53.606;9.462;2022-11-18T01:31:05;20.98;;;10.63;;
56291;SDS011;54008;53.606;9.462;2022-11-18T01:33:32;16.60;;;9.13;;
56291;SDS011;54008;53.606;9.462;2022-11-18T01:35:57;17.63;;;9.40;;
56291;SDS011;54008;53.606;9.462;2022-11-18T01:38:22;18.27;;;9.75;;
56291;SDS011;54008;53.606;9.462;2022-11-18T01:40:48;17.60;;;8.77;;
56291;SDS011;54008;53.606;9.462;2022-11-18T01:43:18;19.88;;;10.00;;
56291;SDS011;54008;53.606;9.462;2022-11-18T01:45:44;18.10;;;9.05;;
56291;SDS011;54008;53.606;9.462;2022-11-18T01:48:14;17.88;;;9.88;;
56291;SDS011;54008;53.606;9.462;2022-11-18T01:50:46;21.38;;;9.55;;
56291;SDS011;54008;53.606;9.462;2022-11-18T01:53:18;18.27;;;9.90;;
56291;SDS011;54008;53.606;9.462;2022-11-18T01:56:00;19.65;;;10.02;;
56291;SDS011;54008;53.606;9.462;2022-11-18T01:58:33;18.85;;;9.68;;
56291;SDS011;54008;53.606;9.462;2022-11-18T02:01:02;15.70;;;9.10;;
56291;SDS011;54008;53.606;9.462;2022-11-18T02:03:29;19.35;;;9.57;;
56291;SDS011;54008;53.606;9.462;2022-11-18T02:05:55;20.83;;;10.63;;
56291;SDS011;54008;53.606;9.462;2022-11-18T02:08:21;21.48;;;10.27;;
56291;SDS011;54008;53.606;9.462;2022-11-18T02:10:47;20.75;;;10.75;;
56291;SDS011;54008;53.606;9.462;2022-11-18T02:13:12;20.20;;;10.57;;
56291;SDS011;54008;53.606;9.462;2022-11-18T02:16:40;18.63;;;10.55;;
56291;SDS011;54008;53.606;9.462;2022-11-18T02:26:46;22.75;;;11.07;;
56291;SDS011;54008;53.606;9.462;2022-11-18T02:29:23;22.60;;;9.38;;
56291;SDS011;54008;53.606;9.462;2022-11-18T02:32:18;22.38;;;11.10;;
56291;SDS011;54008;53.606;9.462;2022-11-18T02:37:22;21.93;;;10.67;;
56291;SDS011;54008;53.606;9.462;2022-11-18T02:39:56;23.50;;;11.93;;
56291;SDS011;54008;53.606;9.462;2022-11-18T02:42:25;19.60;;;10.65;;
56291;SDS011;54008;53.606;9.462;2022-11-18T02:44:57;24.17;;;10.88;;
56291;SDS011;54008;53.606;9.462;2022-11-18T02:47:28;24.38;;;12.80;;
56291;SDS011;54008;53.606;9.462;2022-11-18T02:50:00;23.02;;;12.27;;
56291;SDS011;54008;53.606;9.462;2022-11-18T02:52:30;23.48;;;11.80;;
56291;SDS011;54008;53.606;9.462;2022-11-18T02:54:58;25.08;;;12.13;;
56291;SDS011;54008;53.606;9.462;2022-11-18T02:57:26;26.17;;;13.00;;
56291;SDS011;54008;53.606;9.462;2022-11-18T02:59:54;25.38;;;12.45;;
56291;SDS011;54008;53.606;9.462;2022-11-18T03:02:19;28.52;;;13.40;;
56291;SDS011;54008;53.606;9.462;2022-11-18T03:04:46;28.30;;;13.57;;
56291;SDS011;54008;53.606;9.462;2022-11-18T03:07:16;27.70;;;14.05;;
56291;SDS011;54008;53.606;9.462;2022-11-18T03:09:52;27.65;;;14.63;;
56291;SDS011;54008;53.606;9.462;2022-11-18T03:15:10;32.85;;;15.07;;
56291;SDS011;54008;53.606;9.462;2022-11-18T03:20:48;30.40;;;15.40;;
56291;SDS011;54008;53.606;9.462;2022-11-18T03:23:31;31.45;;;14.85;;
56291;SDS011;54008;53.606;9.462;2022-11-18T03:26:24;31.92;;;14.55;;
56291;SDS011;54008;53.606;9.462;2022-11-18T03:29:01;31.02;;;15.30;;
56291;SDS011;54008;53.606;9.462;2022-11-18T03:31:50;32.00;;;15.00;;
56291;SDS011;54008;53.606;9.462;2022-11-18T03:34:31;29.23;;;14.35;;
56291;SDS011;54008;53.606;9.462;2022-11-18T03:37:01;33.80;;;15.57;;
56291;SDS011;54008;53.606;9.462;2022-11-18T03:39:31;29.60;;;14.95;;
56291;SDS011;54008;53.606;9.462;2022-11-18T03:42:01;32.50;;;16.35;;
56291;SDS011;54008;53.606;9.462;2022-11-18T03:44:42;31.92;;;15.70;;
56291;SDS011;54008;53.606;9.462;2022-11-18T03:47:25;32.28;;;15.45;;
56291;SDS011;54008;53.606;9.462;2022-11-18T03:49:56;33.80;;;16.02;;
56291;SDS011;54008;53.606;9.462;2022-11-18T03:52:29;33.95;;;16.27;;
56291;SDS011;54008;53.606;9.462;2022-11-18T03:55:00;34.55;;;16.55;;
56291;SDS011;54008;53.606;9.462;2022-11-18T03:57:53;31.05;;;15.70;;
56291;SDS011;54008;53.606;9.462;2022-11-18T04:00:31;34.78;;;15.82;;
56291;SDS011;54008;53.606;9.462;2022-11-18T04:03:01;34.83;;;16.65;;
56291;SDS011;54008;53.606;9.462;2022-11-18T04:05:28;35.92;;;16.67;;
56291;SDS011;54008;53.606;9.462;2022-11-18T04:07:59;30.55;;;15.65;;
56291;SDS011;54008;53.606;9.462;2022-11-18T04:15:26;34.03;;;15.63;;
56291;SDS011;54008;53.606;9.462;2022-11-18T04:17:54;32.63;;;15.98;;
56291;SDS011;54008;53.606;9.462;2022-11-18T04:20:20;35.58;;;16.92;;
56291;SDS011;54008;53.606;9.462;2022-11-18T04:22:46;29.98;;;15.43;;
56291;SDS011;54008;53.606;9.462;2022-11-18T04:25:11;33.15;;;16.73;;
56291;SDS011;54008;53.606;9.462;2022-11-18T04:27:37;32.90;;;15.80;;
56291;SDS011;54008;53.606;9.462;2022-11-18T04:30:02;31.45;;;16.65;;
56291;SDS011;54008;53.606;9.462;2022-11-18T04:32:29;33.88;;;16.23;;
56291;SDS011;54008;53.606;9.462;2022-11-18T04:34:54;28.85;;;14.88;;
56291;SDS011;54008;53.606;9.462;2022-11-18T04:37:20;35.00;;;16.67;;
56291;SDS011;54008;53.606;9.462;2022-11-18T04:39:45;31.40;;;15.98;;
56291;SDS011;54008;53.606;9.462;2022-11-18T04:42:10;32.15;;;15.60;;
56291;SDS011;54008;53.606;9.462;2022-11-18T04:44:35;32.47;;;15.27;;
56291;SDS011;54008;53.606;9.462;2022-11-18T04:47:02;30.38;;;15.48;;
56291;SDS011;54008;53.606;9.462;2022-11-18T04:49:29;32.30;;;15.75;;
56291;SDS011;54008;53.606;9.462;2022-11-18T04:51:55;33.95;;;15.00;;
56291;SDS011;54008;53.606;9.462;2022-11-18T04:54:21;32.38;;;16.35;;
56291;SDS011;54008;53.606;9.462;2022-11-18T04:56:47;28.73;;;14.80;;
56291;SDS011;54008;53.606;9.462;2022-11-18T04:59:13;28.40;;;14.05;;
56291;SDS011;54008;53.606;9.462;2022-11-18T05:01:40;32.78;;;15.63;;
56291;SDS011;54008;53.606;9.462;2022-11-18T05:04:06;27.65;;;14.65;;
56291;SDS011;54008;53.606;9.462;2022-11-18T05:06:32;28.83;;;14.95;;
56291;SDS011;54008;53.606;9.462;2022-11-18T05:08:58;29.48;;;14.68;;
56291;SDS011;54008;53.606;9.462;2022-11-18T05:11:24;28.20;;;14.75;;
56291;SDS011;54008;53.606;9.462;2022-11-18T05:14:08;28.80;;;14.70;;
56291;SDS011;54008;53.606;9.462;2022-11-18T05:16:34;27.80;;;14.38;;
56291;SDS011;54008;53.606;9.462;2022-11-18T05:19:03;28.27;;;13.43;;
56291;SDS011;54008;53.606;9.462;2022-11-18T05:21:29;28.05;;;14.60;;
56291;SDS011;54008;53.606;9.462;2022-11-18T05:23:55;27.30;;;14.20;;
56291;SDS011;54008;53.606;9.462;2022-11-18T05:26:20;30.50;;;15.18;;
56291;SDS011;54008;53.606;9.462;2022-11-18T05:28:45;29.75;;;14.27;;
56291;SDS011;54008;53.606;9.462;2022-11-18T05:31:11;29.63;;;14.30;;
56291;SDS011;54008;53.606;9.462;2022-11-18T05:33:38;32.50;;;15.00;;
56291;SDS011;54008;53.606;9.462;2022-11-18T05:36:12;30.95;;;15.55;;
56291;SDS011;54008;53.606;9.462;2022-11-18T05:38:39;32.60;;;15.77;;
56291;SDS011;54008;53.606;9.462;2022-11-18T05:41:05;32.83;;;15.40;;
56291;SDS011;54008;53.606;9.462;2022-11-18T05:43:31;30.30;;;15.93;;
56291;SDS011;54008;53.606;9.462;2022-11-18T05:45:57;28.63;;;15.27;;
56291;SDS011;54008;53.606;9.462;2022-11-18T05:48:23;30.67;;;14.38;;
56291;SDS011;54008;53.606;9.462;2022-11-18T05:50:50;26.95;;;14.88;;
56291;SDS011;54008;53.606;9.462;2022-11-18T05:53:17;31.85;;;15.98;;
56291;SDS011;54008;53.606;9.462;2022-11-18T05:56:03;30.23;;;15.40;;
56291;SDS011;54008;53.606;9.462;2022-11-18T05:58:36;30.73;;;15.68;;
56291;SDS011;54008;53.606;9.462;2022-11-18T06:01:02;37.67;;;18.05;;
56291;SDS011;54008;53.606;9.462;2022-11-18T06:03:30;33.40;;;16.45;;
56291;SDS011;54008;53.606;9.462;2022-11-18T06:05:57;30.95;;;14.45;;
56291;SDS011;54008;53.606;9.462;2022-11-18T06:08:26;38.17;;;17.90;;
56291;SDS011;54008;53.606;9.462;2022-11-18T06:10:54;31.05;;;16.10;;
56291;SDS011;54008;53.606;9.462;2022-11-18T06:13:24;34.05;;;17.38;;
56291;SDS011;54008;53.606;9.462;2022-11-18T06:15:53;32.78;;;17.05;;
56291;SDS011;54008;53.606;9.462;2022-11-18T06:18:21;34.88;;;17.88;;
56291;SDS011;54008;53.606;9.462;2022-11-18T06:20:50;33.90;;;17.17;;
56291;SDS011;54008;53.606;9.462;2022-11-18T06:23:19;36.08;;;16.88;;
56291;SDS011;54008;53.606;9.462;2022-11-18T06:25:45;36.55;;;17.92;;
56291;SDS011;54008;53.606;9.462;2022-11-18T06:28:11;35.88;;;17.13;;
56291;SDS011;54008;53.606;9.462;2022-11-18T06:30:39;37.47;;;18.65;;
56291;SDS011;54008;53.606;9.462;2022-11-18T06:33:04;33.90;;;17.27;;
56291;SDS011;54008;53.606;9.462;2022-11-18T06:35:29;33.50;;;18.45;;
56291;SDS011;54008;53.606;9.462;2022-11-18T06:37:54;37.88;;;18.67;;
56291;SDS011;54008;53.606;9.462;2022-11-18T06:40:20;38.70;;;18.85;;
56291;SDS011;54008;53.606;9.462;2022-11-18T06:42:45;36.22;;;18.38;;
56291;SDS011;54008;53.606;9.462;2022-11-18T06:45:29;39.47;;;19.00;;
56291;SDS011;54008;53.606;9.462;2022-11-18T06:47:58;35.83;;;17.10;;
56291;SDS011;54008;53.606;9.462;2022-11-18T06:50:27;40.65;;;18.40;;
56291;SDS011;54008;53.606;9.462;2022-11-18T06:52:52;39.00;;;19.48;;
56291;SDS011;54008;53.606;9.462;2022-11-18T06:55:18;35.88;;;18.10;;
56291;SDS011;54008;53.606;9.462;2022-11-18T06:57:43;36.70;;;18.38;;
56291;SDS011;54008;53.606;9.462;2022-11-18T07:00:09;37.97;;;18.73;;
56291;SDS011;54008;53.606;9.462;2022-11-18T07:02:35;35.35;;;17.65;;
56291;SDS011;54008;53.606;9.462;2022-11-18T07:05:01;39.45;;;19.42;;
56291;SDS011;54008;53.606;9.462;2022-11-18T07:07:26;35.45;;;17.77;;
56291;SDS011;54008;53.606;9.462;2022-11-18T07:09:51;34.92;;;18.45;;
56291;SDS011;54008;53.606;9.462;2022-11-18T07:12:17;40.95;;;19.23;;
56291;SDS011;54008;53.606;9.462;2022-11-18T07:14:42;35.95;;;18.20;;
56291;SDS011;54008;53.606;9.462;2022-11-18T07:17:07;36.05;;;17.33;;
56291;SDS011;54008;53.606;9.462;2022-11-18T07:19:32;36.80;;;18.95;;
56291;SDS011;54008;53.606;9.462;2022-11-18T07:21:58;38.05;;;18.02;;
56291;SDS011;54008;53.606;9.462;2022-11-18T07:24:24;36.13;;;18.42;;
56291;SDS011;54008;53.606;9.462;2022-11-18T07:26:51;36.80;;;18.40;;
56291;SDS011;54008;53.606;9.462;2022-11-18T07:29:17;35.42;;;17.58;;
56291;SDS011;54008;53.606;9.462;2022-11-18T07:31:42;35.15;;;18.65;;
56291;SDS011;54008;53.606;9.462;2022-11-18T07:34:07;36.35;;;18.25;;
56291;SDS011;54008;53.606;9.462;2022-11-18T07:36:32;34.88;;;17.63;;
56291;SDS011;54008;53.606;9.462;2022-11-18T07:38:58;36.75;;;18.45;;
56291;SDS011;54008;53.606;9.462;2022-11-18T07:41:25;34.05;;;17.02;;
56291;SDS011;54008;53.606;9.462;2022-11-18T07:43:55;37.80;;;18.15;;
56291;SDS011;54008;53.606;9.462;2022-11-18T07:46:35;36.45;;;18.58;;
56291;SDS011;54008;53.606;9.462;2022-11-18T07:49:03;36.60;;;17.70;;
56291;SDS011;54008;53.606;9.462;2022-11-18T07:51:31;35.63;;;17.35;;
56291;SDS011;54008;53.606;9.462;2022-11-18T07:53:58;39.42;;;18.98;;
56291;SDS011;54008;53.606;9.462;2022-11-18T07:56:24;37.83;;;17.35;;
56291;SDS011;54008;53.606;9.462;2022-11-18T07:58:52;36.17;;;17.02;;
56291;SDS011;54008;53.606;9.462;2022-11-18T08:01:20;39.92;;;19.40;;
56291;SDS011;54008;53.606;9.462;2022-11-18T08:03:47;39.90;;;18.25;;
56291;SDS011;54008;53.606;9.462;2022-11-18T08:06:14;41.60;;;19.67;;
56291;SDS011;54008;53.606;9.462;2022-11-18T08:08:41;40.25;;;19.27;;
56291;SDS011;54008;53.606;9.462;2022-11-18T08:11:09;39.50;;;18.77;;
56291;SDS011;54008;53.606;9.462;2022-11-18T08:13:35;38.33;;;18.35;;
56291;SDS011;54008;53.606;9.462;2022-11-18T08:16:01;41.17;;;20.02;;
56291;SDS011;54008;53.606;9.462;2022-11-18T08:18:27;39.72;;;18.30;;
56291;SDS011;54008;53.606;9.462;2022-11-18T08:20:54;40.05;;;18.38;;
56291;SDS011;54008;53.606;9.462;2022-11-18T08:23:19;35.72;;;18.40;;
56291;SDS011;54008;53.606;9.462;2022-11-18T08:25:45;39.45;;;19.15;;
56291;SDS011;54008;53.606;9.462;2022-11-18T08:28:11;40.05;;;19.73;;
56291;SDS011;54008;53.606;9.462;2022-11-18T08:30:38;38.72;;;18.77;;
56291;SDS011;54008;53.606;9.462;2022-11-18T08:33:03;36.40;;;18.70;;
56291;SDS011;54008;53.606;9.462;2022-11-18T08:35:29;32.42;;;16.90;;
56291;SDS011;54008;53.606;9.462;2022-11-18T08:37:55;37.22;;;18.98;;
56291;SDS011;54008;53.606;9.462;2022-11-18T08:40:20;36.83;;;17.52;;
56291;SDS011;54008;53.606;9.462;2022-11-18T08:42:46;34.72;;;18.20;;
56291;SDS011;54008;53.606;9.462;2022-11-18T08:45:11;36.00;;;17.60;;
56291;SDS011;54008;53.606;9.462;2022-11-18T08:47:36;32.95;;;17.38;;
56291;SDS011;54008;53.606;9.462;2022-11-18T08:50:06;32.42;;;16.08;;
56291;SDS011;54008;53.606;9.462;2022-11-18T08:52:34;35.47;;;16.77;;
56291;SDS011;54008;53.606;9.462;2022-11-18T08:54:59;31.67;;;16.25;;
56291;SDS011;54008;53.606;9.462;2022-11-18T08:57:25;30.85;;;16.55;;
56291;SDS011;54008;53.606;9.462;2022-11-18T08:59:51;29.83;;;15.30;;
56291;SDS011;54008;53.606;9.462;2022-11-18T09:02:18;29.33;;;15.05;;
56291;SDS011;54008;53.606;9.462;2022-11-18T09:04:45;27.98;;;14.55;;
56291;SDS011;54008;53.606;9.462;2022-11-18T09:07:11;29.80;;;14.98;;
56291;SDS011;54008;53.606;9.462;2022-11-18T09:09:37;27.90;;;14.60;;
56291;SDS011;54008;53.606;9.462;2022-11-18T09:12:02;27.27;;;15.07;;
56291;SDS011;54008;53.606;9.462;2022-11-18T09:14:27;31.20;;;14.95;;
56291;SDS011;54008;53.606;9.462;2022-11-18T09:16:53;27.95;;;14.77;;
56291;SDS011;54008;53.606;9.462;2022-11-18T09:19:18;30.20;;;15.60;;
56291;SDS011;54008;53.606;9.462;2022-11-18T09:21:43;29.05;;;15.02;;
56291;SDS011;54008;53.606;9.462;2022-11-18T09:24:08;30.90;;;15.45;;
56291;SDS011;54008;53.606;9.462;2022-11-18T09:26:35;29.52;;;15.55;;
56291;SDS011;54008;53.606;9.462;2022-11-18T09:29:01;27.83;;;14.32;;
56291;SDS011;54008;53.606;9.462;2022-11-18T09:31:27;26.33;;;13.63;;
56291;SDS011;54008;53.606;9.462;2022-11-18T09:33:52;31.70;;;14.93;;
56291;SDS011;54008;53.606;9.462;2022-11-18T09:38:44;28.00;;;14.82;;
56291;SDS011;54008;53.606;9.462;2022-11-18T09:49:25;32.28;;;16.08;;
56291;SDS011;54008;53.606;9.462;2022-11-18T09:51:54;28.38;;;14.68;;
56291;SDS011;54008;53.606;9.462;2022-11-18T09:54:22;28.30;;;14.27;;
56291;SDS011;54008;53.606;9.462;2022-11-18T09:56:51;26.88;;;13.98;;
56291;SDS011;54008;53.606;9.462;2022-11-18T09:59:19;29.60;;;15.48;;
56291;SDS011;54008;53.606;9.462;2022-11-18T10:01:47;39.28;;;14.68;;
56291;SDS011;54008;53.606;9.462;2022-11-18T10:04:17;27.98;;;14.95;;
56291;SDS011;54008;53.606;9.462;2022-11-18T10:06:45;25.52;;;14.55;;
56291;SDS011;54008;53.606;9.462;2022-11-18T10:09:32;26.98;;;13.85;;
56291;SDS011;54008;53.606;9.462;2022-11-18T10:14:53;26.70;;;13.73;;
56291;SDS011;54008;53.606;9.462;2022-11-18T10:17:42;23.60;;;13.18;;
56291;SDS011;54008;53.606;9.462;2022-11-18T10:25:18;22.95;;;12.07;;
56291;SDS011;54008;53.606;9.462;2022-11-18T10:27:44;25.02;;;12.23;;
56291;SDS011;54008;53.606;9.462;2022-11-18T10:30:11;22.38;;;12.02;;
56291;SDS011;54008;53.606;9.462;2022-11-18T10:33:00;21.80;;;12.07;;
56291;SDS011;54008;53.606;9.462;2022-11-18T10:35:29;20.75;;;11.23;;
56291;SDS011;54008;53.606;9.462;2022-11-18T10:38:22;21.50;;;11.30;;
56291;SDS011;54008;53.606;9.462;2022-11-18T10:48:41;22.92;;;10.40;;
56291;SDS011;54008;53.606;9.462;2022-11-18T10:51:21;22.75;;;11.68;;
56291;SDS011;54008;53.606;9.462;2022-11-18T10:53:47;20.42;;;11.00;;
56291;SDS011;54008;53.606;9.462;2022-11-18T10:56:13;23.70;;;11.18;;
56291;SDS011;54008;53.606;9.462;2022-11-18T10:58:40;20.35;;;9.63;;
56291;SDS011;54008;53.606;9.462;2022-11-18T11:01:21;17.85;;;9.10;;
56291;SDS011;54008;53.606;9.462;2022-11-18T11:04:05;17.90;;;10.60;;
56291;SDS011;54008;53.606;9.462;2022-11-18T11:06:47;19.05;;;10.10;;
56291;SDS011;54008;53.606;9.462;2022-11-18T11:14:20;16.77;;;9.65;;
56291;SDS011;54008;53.606;9.462;2022-11-18T11:19:17;19.00;;;9.45;;
56291;SDS011;54008;53.606;9.462;2022-11-18T11:21:46;16.48;;;9.38;;
56291;SDS011;54008;53.606;9.462;2022-11-18T11:24:11;17.73;;;9.40;;
56291;SDS011;54008;53.606;9.462;2022-11-18T11:26:40;13.88;;;7.85;;
56291;SDS011;54008;53.606;9.462;2022-11-18T11:32:01;13.68;;;8.30;;
56291;SDS011;54008;53.606;9.462;2022-11-18T11:34:52;13.27;;;7.18;;
56291;SDS011;54008;53.606;9.462;2022-11-18T11:43:03;10.98;;;6.07;;
56291;SDS011;54008;53.606;9.462;2022-11-18T11:45:35;12.13;;;6.78;;
56291;SDS011;54008;53.606;9.462;2022-11-18T11:51:01;12.45;;;6.88;;
56291;SDS011;54008;53.606;9.462;2022-11-18T11:53:43;10.95;;;6.65;;
56291;SDS011;54008;53.606;9.462;2022-11-18T11:56:30;12.18;;;6.68;;
56291;SDS011;54008;53.606;9.462;2022-11-18T12:04:44;11.63;;;5.78;;
56291;SDS011;54008;53.606;9.462;2022-11-18T12:07:35;10.80;;;6.05;;
56291;SDS011;54008;53.606;9.462;2022-11-18T12:10:09;10.95;;;6.05;;
56291;SDS011;54008;53.606;9.462;2022-11-18T12:18:47;11.48;;;6.07;;
56291;SDS011;54008;53.606;9.462;2022-11-18T12:24:24;12.63;;;6.63;;
56291;SDS011;54008;53.606;9.462;2022-11-18T12:26:55;13.40;;;6.57;;
56291;SDS011;54008;53.606;9.462;2022-11-18T12:29:23;9.35;;;5.75;;
56291;SDS011;54008;53.606;9.462;2022-11-18T12:31:55;12.88;;;5.93;;
56291;SDS011;54008;53.606;9.462;2022-11-18T12:34:37;12.20;;;6.53;;
56291;SDS011;54008;53.606;9.462;2022-11-18T12:42:36;12.32;;;5.72;;
56291;SDS011;54008;53.606;9.462;2022-11-18T12:50:57;12.52;;;6.65;;
56291;SDS011;54008;53.606;9.462;2022-11-18T12:58:48;9.45;;;4.85;;
56291;SDS011;54008;53.606;9.462;2022-11-18T13:01:21;12.88;;;6.32;;
56291;SDS011;54008;53.606;9.462;2022-11-18T13:03:48;11.13;;;5.70;;
56291;SDS011;54008;53.606;9.462;2022-11-18T13:06:18;12.07;;;5.72;;
56291;SDS011;54008;53.606;9.462;2022-11-18T13:09:00;12.88;;;6.30;;
56291;SDS011;54008;53.606;9.462;2022-11-18T13:11:28;10.65;;;5.78;;
56291;SDS011;54008;53.606;9.462;2022-11-18T13:17:02;13.30;;;7.25;;
56291;SDS011;54008;53.606;9.462;2022-11-18T13:20:17;10.38;;;5.55;;
56291;SDS011;54008;53.606;9.462;2022-11-18T13:22:49;11.27;;;5.68;;
56291;SDS011;54008;53.606;9.462;2022-11-18T13:25:33;11.93;;;5.53;;
56291;SDS011;54008;53.606;9.462;2022-11-18T13:34:09;11.07;;;5.40;;
56291;SDS011;54008;53.606;9.462;2022-11-18T13:36:42;15.45;;;6.25;;
56291;SDS011;54008;53.606;9.462;2022-11-18T13:39:17;11.40;;;5.50;;
56291;SDS011;54008;53.606;9.462;2022-11-18T13:44:37;10.32;;;5.38;;
56291;SDS011;54008;53.606;9.462;2022-11-18T13:50:00;11.23;;;5.15;;
56291;SDS011;54008;53.606;9.462;2022-11-18T13:55:24;12.80;;;4.90;;
56291;SDS011;54008;53.606;9.462;2022-11-18T13:58:02;9.57;;;4.75;;
56291;SDS011;54008;53.606;9.462;2022-11-18T14:00:55;9.60;;;4.97;;
56291;SDS011;54008;53.606;9.462;2022-11-18T14:06:08;11.73;;;4.80;;
56291;SDS011;54008;53.606;9.462;2022-11-18T14:08:34;10.07;;;4.78;;
56291;SDS011;54008;53.606;9.462;2022-11-18T14:11:02;9.88;;;4.88;;
56291;SDS011;54008;53.606;9.462;2022-11-18T14:13:32;10.27;;;4.65;;
56291;SDS011;54008;53.606;9.462;2022-11-18T14:16:01;9.20;;;4.38;;
56291;SDS011;54008;53.606;9.462;2022-11-18T14:18:44;8.45;;;4.32;;
56291;SDS011;54008;53.606;9.462;2022-11-18T14:21:11;10.40;;;4.55;;
56291;SDS011;54008;53.606;9.462;2022-11-18T14:23:40;10.73;;;5.00;;
56291;SDS011;54008;53.606;9.462;2022-11-18T14:26:07;7.63;;;4.35;;
56291;SDS011;54008;53.606;9.462;2022-11-18T14:28:34;10.05;;;4.93;;
56291;SDS011;54008;53.606;9.462;2022-11-18T14:31:06;8.65;;;4.60;;
56291;SDS011;54008;53.606;9.462;2022-11-18T14:34:29;9.70;;;4.35;;
56291;SDS011;54008;53.606;9.462;2022-11-18T14:36:38;9.55;;;4.38;;
56291;SDS011;54008;53.606;9.462;2022-11-18T14:39:11;7.60;;;4.30;;
56291;SDS011;54008;53.606;9.462;2022-11-18T14:41:37;7.60;;;4.20;;
56291;SDS011;54008;53.606;9.462;2022-11-18T14:44:11;8.50;;;3.25;;
56291;SDS011;54008;53.606;9.462;2022-11-18T14:46:37;8.45;;;3.80;;
56291;SDS011;54008;53.606;9.462;2022-11-18T14:49:03;6.65;;;3.60;;
56291;SDS011;54008;53.606;9.462;2022-11-18T14:51:34;6.90;;;3.33;;
56291;SDS011;54008;53.606;9.462;2022-11-18T14:54:00;7.78;;;3.63;;
56291;SDS011;54008;53.606;9.462;2022-11-18T14:56:26;6.85;;;3.75;;
56291;SDS011;54008;53.606;9.462;2022-11-18T14:58:54;7.70;;;3.53;;
56291;SDS011;54008;53.606;9.462;2022-11-18T15:01:19;8.80;;;3.53;;
56291;SDS011;54008;53.606;9.462;2022-11-18T15:03:45;8.25;;;4.15;;
56291;SDS011;54008;53.606;9.462;2022-11-18T15:06:11;9.38;;;5.05;;
56291;SDS011;54008;53.606;9.462;2022-11-18T15:08:41;8.32;;;4.20;;
56291;SDS011;54008;53.606;9.462;2022-11-18T15:11:08;10.27;;;4.00;;
56291;SDS011;54008;53.606;9.462;2022-11-18T15:13:34;8.10;;;4.72;;
56291;SDS011;54008;53.606;9.462;2022-11-18T15:16:00;9.82;;;4.18;;
56291;SDS011;54008;53.606;9.462;2022-11-18T15:18:34;7.70;;;3.75;;
56291;SDS011;54008;53.606;9.462;2022-11-18T15:20:59;8.38;;;4.43;;
56291;SDS011;54008;53.606;9.462;2022-11-18T15:23:24;6.93;;;4.40;;
56291;SDS011;54008;53.606;9.462;2022-11-18T15:25:50;8.32;;;4.93;;
56291;SDS011;54008;53.606;9.462;2022-11-18T15:28:15;7.20;;;4.18;;
56291;SDS011;54008;53.606;9.462;2022-11-18T15:30:40;9.82;;;4.38;;
56291;SDS011;54008;53.606;9.462;2022-11-18T15:33:05;9.45;;;4.60;;
56291;SDS011;54008;53.606;9.462;2022-11-18T15:35:31;9.02;;;4.32;;
56291;SDS011;54008;53.606;9.462;2022-11-18T15:37:56;9.23;;;5.03;;
56291;SDS011;54008;53.606;9.462;2022-11-18T15:40:21;10.07;;;4.82;;
56291;SDS011;54008;53.606;9.462;2022-11-18T15:42:46;9.77;;;5.53;;
56291;SDS011;54008;53.606;9.462;2022-11-18T15:45:11;9.25;;;5.07;;
56291;SDS011;54008;53.606;9.462;2022-11-18T15:47:37;9.85;;;4.85;;
56291;SDS011;54008;53.606;9.462;2022-11-18T15:50:02;11.05;;;5.78;;
56291;SDS011;54008;53.606;9.462;2022-11-18T15:52:28;13.45;;;5.72;;
56291;SDS011;54008;53.606;9.462;2022-11-18T15:54:53;11.82;;;5.70;;
56291;SDS011;54008;53.606;9.462;2022-11-18T15:57:19;11.30;;;5.88;;
56291;SDS011;54008;53.606;9.462;2022-11-18T15:59:44;11.02;;;5.72;;
56291;SDS011;54008;53.606;9.462;2022-11-18T16:02:09;12.27;;;6.18;;
56291;SDS011;54008;53.606;9.462;2022-11-18T16:04:35;13.90;;;5.95;;
56291;SDS011;54008;53.606;9.462;2022-11-18T16:07:01;10.90;;;5.38;;
56291;SDS011;54008;53.606;9.462;2022-11-18T16:09:27;10.18;;;5.60;;
56291;SDS011;54008;53.606;9.462;2022-11-18T16:12:12;9.98;;;5.78;;
56291;SDS011;54008;53.606;9.462;2022-11-18T16:14:56;11.50;;;5.68;;
56291;SDS011;54008;53.606;9.462;2022-11-18T16:17:41;13.00;;;5.95;;
56291;SDS011;54008;53.606;9.462;2022-11-18T16:20:07;10.70;;;5.53;;
56291;SDS011;54008;53.606;9.462;2022-11-18T16:22:32;12.25;;;6.20;;
56291;SDS011;54008;53.606;9.462;2022-11-18T16:24:58;15.93;;;6.97;;
56291;SDS011;54008;53.606;9.462;2022-11-18T16:27:23;13.93;;;6.85;;
56291;SDS011;54008;53.606;9.462;2022-11-18T16:29:48;13.38;;;6.70;;
56291;SDS011;54008;53.606;9.462;2022-11-18T16:32:13;13.63;;;6.97;;
56291;SDS011;54008;53.606;9.462;2022-11-18T16:34:39;17.52;;;7.15;;
56291;SDS011;54008;53.606;9.462;2022-11-18T16:37:04;11.73;;;6.47;;
56291;SDS011;54008;53.606;9.462;2022-11-18T16:39:30;12.88;;;6.97;;
56291;SDS011;54008;53.606;9.462;2022-11-18T16:41:56;13.40;;;6.95;;
56291;SDS011;54008;53.606;9.462;2022-11-18T16:44:22;13.13;;;6.68;;